Time;durP1;ratioP1;P1;durP2;ratioP2;P2;SDS_P1;SDS_P2;PMS_P1;PMS_P2;Temp;Humidity;BMP_temperature;BMP_pressure;BME280_temperature;BME280_humidity;BME280_pressure;Samples;Min_cycle;Max_cycle;Signal;HPM_P1;HPM_P2
2023/08/11 00:01:59;;;;;;;45.22;41.42;;;;;;;18.23;100.00;101420.34;5017736;28;20657;-85
2023/08/11 00:04:26;;;;;;;46.13;42.33;;;;;;;18.25;100.00;101408.31;5015950;28;20042;-79
2023/08/11 00:06:54;;;;;;;41.15;37.65;;;;;;;18.16;100.00;101408.94;5024465;28;20045;-79
2023/08/11 00:09:24;;;;;;;46.85;42.95;;;;;;;18.26;100.00;101403.72;5021527;28;20082;-79
2023/08/11 00:11:51;;;;;;;40.50;37.08;;;;;;;18.37;100.00;101429.75;5015929;28;20045;-79
2023/08/11 00:14:18;;;;;;;40.58;37.08;;;;;;;18.41;100.00;101432.78;5016905;28;20553;-79
2023/08/11 00:16:47;;;;;;;40.90;37.40;;;;;;;18.23;100.00;101434.59;5021526;28;20409;-85
2023/08/11 00:19:13;;;;;;;44.00;40.30;;;;;;;18.21;100.00;101438.56;5018560;28;20049;-85
2023/08/11 00:21:41;;;;;;;39.60;36.10;;;;;;;18.30;100.00;101429.88;5014662;28;20051;-84
2023/08/11 00:24:08;;;;;;;44.58;40.88;;;;;;;18.44;100.00;101440.38;5017305;28;20038;-79
2023/08/11 00:26:35;;;;;;;44.65;40.85;;;;;;;18.42;100.00;101442.47;5016311;28;20058;-80
2023/08/11 00:29:02;;;;;;;51.63;47.42;;;;;;;18.49;100.00;101441.28;5021161;28;20485;-79
2023/08/11 00:31:29;;;;;;;55.20;50.72;;;;;;;18.36;100.00;101438.06;5021490;28;20076;-79
2023/08/11 00:33:58;;;;;;;46.83;42.92;;;;;;;18.39;100.00;101430.31;5015833;28;20043;-79
2023/08/11 00:36:25;;;;;;;49.22;45.15;;;;;;;18.45;100.00;101423.97;5023426;28;20052;-85
2023/08/11 00:38:51;;;;;;;47.80;43.80;;;;;;;18.35;100.00;101439.13;5020395;28;20053;-85
2023/08/11 00:41:18;;;;;;;51.05;46.85;;;;;;;18.24;100.00;101432.72;5024689;28;20056;-79
2023/08/11 00:43:45;;;;;;;49.83;45.83;;;;;;;18.08;100.00;101445.06;5026452;28;20503;-79
2023/08/11 00:46:14;;;;;;;48.78;44.85;;;;;;;18.17;100.00;101442.81;5020509;28;20060;-79
2023/08/11 00:48:43;;;;;;;54.22;50.03;;;;;;;17.59;100.00;101434.59;5020404;28;20116;-79
2023/08/11 00:51:13;;;;;;;49.33;45.33;;;;;;;18.27;100.00;101438.44;5024818;28;20560;-79
2023/08/11 00:53:40;;;;;;;48.55;44.50;;;;;;;18.29;100.00;101435.53;5021833;28;20493;-79
2023/08/11 00:56:08;;;;;;;51.38;47.28;;;;;;;17.87;100.00;101434.94;5021931;28;20050;-79
2023/08/11 00:58:36;;;;;;;53.63;49.33;;;;;;;17.82;100.00;101430.25;5018360;28;20049;-79
2023/08/11 01:01:03;;;;;;;54.17;49.80;;;;;;;18.13;100.00;101429.03;5030125;28;20042;-78
2023/08/11 01:03:29;;;;;;;46.88;43.08;;;;;;;17.82;100.00;101420.34;5019120;28;20054;-79
2023/08/11 01:06:05;;;;;;;48.75;44.75;;;;;;;18.00;100.00;101414.00;5020694;28;20441;-79
2023/08/11 01:08:38;;;;;;;52.75;48.55;;;;;;;18.02;100.00;101421.81;5021956;28;20054;-79
2023/08/11 01:11:22;;;;;;;53.08;48.78;;;;;;;18.11;100.00;101417.69;5030330;28;20425;-79
2023/08/11 01:13:55;;;;;;;52.78;48.53;;;;;;;18.21;100.00;101409.00;5028980;28;20064;-79
2023/08/11 01:16:24;;;;;;;55.95;51.55;;;;;;;18.30;100.00;101410.25;5025528;28;20057;-79
2023/08/11 01:18:51;;;;;;;51.95;47.75;;;;;;;18.39;100.00;101410.69;5020949;28;20497;-79
2023/08/11 01:21:19;;;;;;;49.22;45.10;;;;;;;18.54;100.00;101409.06;5020783;28;20445;-78
2023/08/11 01:23:48;;;;;;;49.53;45.47;;;;;;;17.88;100.00;101401.63;5026269;28;20054;-79
2023/08/11 01:26:15;;;;;;;55.22;50.83;;;;;;;18.13;100.00;101396.78;5028643;28;20426;-79
2023/08/11 01:28:43;;;;;;;51.65;47.55;;;;;;;18.09;100.00;101403.66;5020613;28;20046;-83
2023/08/11 01:31:10;;;;;;;52.33;48.33;;;;;;;18.07;100.00;101408.50;5021956;28;20054;-84
2023/08/11 01:33:38;;;;;;;53.70;49.50;;;;;;;18.09;100.00;101390.22;5014524;28;20709;-78
2023/08/11 01:36:05;;;;;;;62.00;57.33;;;;;;;17.89;100.00;101398.72;5019212;28;20042;-79
2023/08/11 01:38:32;;;;;;;49.70;45.75;;;;;;;17.89;100.00;101400.59;5028268;28;20041;-84
2023/08/11 01:41:01;;;;;;;44.75;41.00;;;;;;;17.89;100.00;101393.34;5021804;28;20050;-84
2023/08/11 01:43:29;;;;;;;49.42;45.33;;;;;;;17.98;100.00;101383.84;5020363;28;20056;-85
2023/08/11 01:45:57;;;;;;;53.63;49.33;;;;;;;17.91;100.00;101376.97;5023537;28;20157;-85
2023/08/11 01:48:26;;;;;;;40.78;37.30;;;;;;;18.15;100.00;101391.16;5017991;28;20048;-79
2023/08/11 01:50:53;;;;;;;42.08;38.58;;;;;;;18.02;100.00;101376.13;5020634;28;20046;-79
2023/08/11 01:53:22;;;;;;;38.67;35.28;;;;;;;18.16;100.00;101384.72;5019924;28;20422;-78
2023/08/11 01:55:53;;;;;;;36.10;32.90;;;;;;;18.13;100.00;101379.84;5027267;28;20517;-83
2023/08/11 01:58:23;;;;;;;38.17;34.88;;;;;;;18.15;100.00;101383.09;5018715;28;20340;-84
2023/08/11 02:00:49;;;;;;;42.35;38.95;;;;;;;18.12;100.00;101388.94;5019718;28;20056;-78
2023/08/11 02:03:17;;;;;;;43.92;40.33;;;;;;;18.20;100.00;101396.63;5026660;28;20045;-84
2023/08/11 02:05:44;;;;;;;53.05;48.88;;;;;;;18.27;100.00;101386.53;5019629;28;20045;-79
2023/08/11 02:08:17;;;;;;;46.95;43.05;;;;;;;17.82;100.00;101382.75;5015581;28;20492;-84
2023/08/11 02:10:44;;;;;;;56.22;51.83;;;;;;;18.01;100.00;101387.94;5022117;28;20049;-84
2023/08/11 02:13:12;;;;;;;60.03;55.45;;;;;;;17.95;100.00;101380.84;5016924;28;20077;-85
2023/08/11 02:15:40;;;;;;;66.57;61.55;;;;;;;18.08;100.00;101388.59;5022144;28;20525;-84
2023/08/11 02:18:07;;;;;;;53.08;48.85;;;;;;;18.00;100.00;101389.81;5018242;28;20048;-84
2023/08/11 02:20:34;;;;;;;57.65;53.15;;;;;;;18.00;100.00;101386.28;5022939;28;20076;-79
2023/08/11 02:23:01;;;;;;;75.22;69.72;;;;;;;18.11;100.00;101390.81;5016011;28;20053;-84
2023/08/11 02:25:28;;;;;;;67.05;62.08;;;;;;;17.56;100.00;101381.34;5019818;28;20045;-85
2023/08/11 02:27:55;;;;;;;87.30;81.30;;;;;;;17.71;100.00;101388.91;5018204;28;20048;-84
2023/08/11 02:30:22;;;;;;;72.47;67.28;;;;;;;17.82;100.00;101393.50;5020761;28;20044;-84
2023/08/11 02:32:53;;;;;;;78.70;73.10;;;;;;;17.85;100.00;101390.31;5017641;28;20498;-84
2023/08/11 02:35:21;;;;;;;78.82;73.32;;;;;;;17.98;100.00;101401.84;5023972;28;20077;-84
2023/08/11 02:37:48;;;;;;;53.10;48.88;;;;;;;17.75;100.00;101398.13;5030013;28;20053;-79
2023/08/11 02:40:19;;;;;;;79.47;73.97;;;;;;;17.75;100.00;101406.19;5029817;28;20049;-84
2023/08/11 02:42:53;;;;;;;73.72;68.60;;;;;;;17.35;100.00;101412.31;5029644;28;20730;-84
2023/08/11 02:45:20;;;;;;;76.70;71.60;;;;;;;17.93;100.00;101412.50;5025381;28;20041;-84
2023/08/11 02:47:47;;;;;;;79.88;74.47;;;;;;;18.10;100.00;101405.31;5027746;28;20041;-78
2023/08/11 02:50:16;;;;;;;99.22;92.78;;;;;;;18.20;100.00;101410.06;5023383;28;20128;-79
2023/08/11 02:52:43;;;;;;;86.05;80.25;;;;;;;18.14;100.00;101406.47;5024708;28;20690;-79
2023/08/11 02:55:11;;;;;;;86.57;80.78;;;;;;;17.82;100.00;101412.28;5030171;28;20068;-84
2023/08/11 02:57:38;;;;;;;90.40;84.25;;;;;;;17.97;100.00;101417.16;5028445;28;20136;-84
2023/08/11 03:00:12;;;;;;;79.90;74.47;;;;;;;18.05;100.00;101414.09;5023530;28;20049;-84
2023/08/11 03:02:39;;;;;;;94.85;88.45;;;;;;;18.05;100.00;101418.66;5030433;28;20045;-84
2023/08/11 03:05:09;;;;;;;85.30;79.57;;;;;;;18.25;100.00;101418.25;5029840;28;20045;-84
2023/08/11 03:07:39;;;;;;;78.97;73.53;;;;;;;18.26;100.00;101418.00;5020837;28;20056;-84
2023/08/11 03:10:07;;;;;;;102.82;96.13;;;;;;;18.06;100.00;101426.50;5030616;28;20041;-84
2023/08/11 03:12:34;;;;;;;111.47;104.18;;;;;;;18.20;100.00;101418.94;5030070;28;20046;-84
2023/08/11 03:15:02;;;;;;;71.82;66.63;;;;;;;18.12;100.00;101427.38;5023432;28;20048;-84
2023/08/11 03:17:29;;;;;;;76.72;71.43;;;;;;;18.07;100.00;101419.25;5020851;28;20099;-84
2023/08/11 03:19:56;;;;;;;66.13;61.38;;;;;;;18.15;100.00;101415.34;5028886;28;20053;-84
2023/08/11 03:22:23;;;;;;;50.22;46.22;;;;;;;18.06;100.00;101410.38;5028411;28;20062;-84
2023/08/11 03:24:51;;;;;;;44.13;40.63;;;;;;;18.28;100.00;101420.44;5030069;28;20099;-84
2023/08/11 03:27:19;;;;;;;33.13;30.42;;;;;;;18.06;100.00;101426.50;5029786;28;20494;-84
2023/08/11 03:29:46;;;;;;;33.72;30.92;;;;;;;17.98;100.00;101428.72;5026453;28;20520;-84
2023/08/11 03:32:13;;;;;;;36.40;33.40;;;;;;;17.91;100.00;101422.66;5029480;28;20037;-84
2023/08/11 03:34:41;;;;;;;37.47;34.47;;;;;;;17.64;100.00;101423.16;5024197;28;20567;-84
2023/08/11 03:37:08;;;;;;;34.58;31.77;;;;;;;18.14;100.00;101430.66;5027464;28;20556;-84
2023/08/11 03:39:35;;;;;;;35.63;32.72;;;;;;;17.85;100.00;101438.69;5030383;28;20042;-85
2023/08/11 03:42:05;;;;;;;33.33;30.52;;;;;;;18.17;100.00;101432.06;5029862;28;20064;-85
2023/08/11 03:44:32;;;;;;;33.72;30.55;;;;;;;17.73;100.00;101435.19;5018293;28;20073;-84
2023/08/11 03:46:59;;;;;;;34.95;32.10;;;;;;;17.72;100.00;101435.41;5023919;28;20512;-84
2023/08/11 03:49:27;;;;;;;34.95;32.15;;;;;;;17.82;100.00;101439.16;5028828;28;20432;-85
2023/08/11 03:51:54;;;;;;;33.45;30.40;;;;;;;17.84;100.00;101436.22;5029895;28;20057;-84
2023/08/11 03:54:21;;;;;;;35.00;32.10;;;;;;;17.71;100.00;101437.28;5029134;28;20045;-84
2023/08/11 03:56:48;;;;;;;35.05;32.10;;;;;;;17.60;100.00;101446.97;5025145;28;20053;-84
2023/08/11 03:59:16;;;;;;;34.75;31.75;;;;;;;17.49;100.00;101445.13;5029193;28;20044;-84
2023/08/11 04:01:43;;;;;;;32.80;30.10;;;;;;;17.65;100.00;101430.16;5029006;28;20049;-85
2023/08/11 04:04:10;;;;;;;33.40;30.80;;;;;;;17.68;100.00;101435.06;5025578;28;20048;-85
2023/08/11 04:06:37;;;;;;;31.10;28.60;;;;;;;17.21;100.00;101428.88;5029404;28;20064;-84
2023/08/11 04:09:04;;;;;;;34.42;31.52;;;;;;;17.58;100.00;101445.59;5028284;28;20061;-85
2023/08/11 04:11:32;;;;;;;34.90;32.00;;;;;;;17.63;100.00;101454.56;5027516;28;20057;-85
2023/08/11 04:13:59;;;;;;;32.73;30.03;;;;;;;17.33;100.00;101452.00;4679045;28;10000135;-85
2023/08/11 04:16:28;;;;;;;35.58;32.40;;;;;;;17.17;100.00;101447.31;5020785;28;20325;-85
2023/08/11 04:18:54;;;;;;;35.45;32.55;;;;;;;17.75;100.00;101454.53;5019884;28;20045;-85
2023/08/11 04:21:22;;;;;;;31.80;29.10;;;;;;;17.99;100.00;101455.34;5018938;28;20050;-85
2023/08/11 04:23:49;;;;;;;34.17;31.33;;;;;;;18.08;100.00;101445.88;5023378;28;20501;-85
2023/08/11 04:26:16;;;;;;;35.00;32.03;;;;;;;18.09;100.00;101452.06;5023191;28;20508;-85
2023/08/11 04:28:44;;;;;;;33.55;30.85;;;;;;;17.98;100.00;101458.28;5017265;28;20421;-84
2023/08/11 04:31:11;;;;;;;31.50;28.95;;;;;;;18.04;100.00;101466.22;5018742;28;20046;-85
2023/08/11 04:33:39;;;;;;;33.95;31.15;;;;;;;17.85;100.00;101465.56;5022179;28;20402;-85
2023/08/11 04:36:06;;;;;;;37.22;34.30;;;;;;;18.11;100.00;101463.38;5019731;28;20049;-85
2023/08/11 04:38:33;;;;;;;36.60;33.80;;;;;;;18.23;100.00;101463.38;5022461;28;20054;-85
2023/08/11 04:41:00;;;;;;;35.80;33.00;;;;;;;18.29;100.00;101467.78;5023174;28;20065;-86
2023/08/11 04:43:27;;;;;;;39.65;36.35;;;;;;;18.62;100.00;101472.44;5026497;28;20041;-85
2023/08/11 04:45:55;;;;;;;39.90;36.70;;;;;;;18.77;100.00;101471.94;5025143;28;20048;-85
2023/08/11 04:48:22;;;;;;;40.22;37.03;;;;;;;18.70;100.00;101474.75;5024899;28;20506;-85
2023/08/11 04:50:52;;;;;;;38.42;35.38;;;;;;;18.82;100.00;101472.03;5021516;28;20270;-85
2023/08/11 04:53:20;;;;;;;41.22;37.92;;;;;;;18.99;100.00;101472.03;5021605;28;20091;-85
2023/08/11 04:55:48;;;;;;;36.85;33.95;;;;;;;18.98;100.00;101473.91;5018829;28;20140;-85
2023/08/11 04:58:15;;;;;;;37.60;34.65;;;;;;;19.18;100.00;101470.75;5026772;28;20053;-85
2023/08/11 05:00:43;;;;;;;38.58;35.55;;;;;;;19.19;100.00;101469.69;5017428;28;20050;-85
2023/08/11 05:03:09;;;;;;;41.85;38.70;;;;;;;19.25;100.00;101459.81;5018952;28;20045;-86
2023/08/11 05:05:36;;;;;;;42.25;39.05;;;;;;;19.36;100.00;101474.25;5026805;28;20045;-85
2023/08/11 05:08:05;;;;;;;40.13;37.05;;;;;;;19.33;100.00;101448.63;5022233;28;20057;-85
2023/08/11 05:10:33;;;;;;;40.58;37.47;;;;;;;19.45;100.00;101456.59;5019633;28;20456;-85
2023/08/11 05:13:00;;;;;;;40.80;37.60;;;;;;;19.81;100.00;101465.22;5019134;28;20077;-86
2023/08/11 05:15:26;;;;;;;43.35;39.63;;;;;;;19.86;100.00;101468.00;5019663;28;20464;-86
2023/08/11 05:17:53;;;;;;;39.80;36.70;;;;;;;20.01;100.00;101464.69;5015412;28;20524;-86
2023/08/11 05:20:21;;;;;;;40.03;36.88;;;;;;;20.09;100.00;101464.22;5023175;28;20493;-85
2023/08/11 05:22:48;;;;;;;38.15;35.17;;;;;;;20.26;100.00;101458.75;5024235;28;20128;-85
2023/08/11 05:25:17;;;;;;;39.90;36.72;;;;;;;20.66;100.00;101455.69;5019392;28;20045;-85
2023/08/11 05:27:43;;;;;;;38.53;35.53;;;;;;;20.48;100.00;101456.03;5022765;28;20065;-86
2023/08/11 05:30:11;;;;;;;37.20;34.30;;;;;;;20.37;100.00;101455.13;5019619;28;20383;-83
2023/08/11 05:32:38;;;;;;;35.15;32.35;;;;;;;20.26;100.00;101453.38;5021983;28;20061;-86
2023/08/11 05:35:05;;;;;;;37.60;34.80;;;;;;;20.64;100.00;101451.66;5026124;28;20171;-84
2023/08/11 05:37:33;;;;;;;35.33;32.83;;;;;;;20.33;100.00;101453.97;5023655;28;20527;-86
2023/08/11 05:40:00;;;;;;;32.20;30.08;;;;;;;20.48;100.00;101456.84;5024306;28;20203;-86
2023/08/11 05:42:28;;;;;;;34.00;31.70;;;;;;;21.68;100.00;101453.00;5022916;28;20049;-85
2023/08/11 05:44:55;;;;;;;37.05;34.47;;;;;;;21.64;100.00;101449.19;5025622;28;20134;-86
2023/08/11 05:47:22;;;;;;;36.95;34.55;;;;;;;21.07;100.00;101455.25;5025046;28;20056;-79
2023/08/11 05:49:49;;;;;;;33.05;30.85;;;;;;;20.90;100.00;101463.47;5022714;28;20054;-78
2023/08/11 05:52:16;;;;;;;33.13;30.73;;;;;;;21.16;100.00;101459.09;5020450;28;20544;-79
2023/08/11 05:54:42;;;;;;;29.58;27.58;;;;;;;21.08;100.00;101456.88;5027150;28;20057;-79
2023/08/11 05:57:09;;;;;;;33.55;31.30;;;;;;;21.10;100.00;101454.75;5022237;28;20528;-79
2023/08/11 05:59:38;;;;;;;33.00;30.70;;;;;;;21.52;100.00;101459.41;5027305;28;20099;-79
2023/08/11 06:02:05;;;;;;;29.70;27.80;;;;;;;21.35;100.00;101448.69;5021157;28;20045;-79
2023/08/11 06:04:31;;;;;;;29.10;27.30;;;;;;;21.91;100.00;101451.75;5026005;28;20282;-78
2023/08/11 06:07:00;;;;;;;30.38;28.27;;;;;;;21.49;100.00;101461.53;5024473;28;20065;-86
2023/08/11 06:09:27;;;;;;;28.52;26.52;;;;;;;20.97;100.00;101456.81;5026411;28;20045;-79
2023/08/11 06:11:54;;;;;;;29.92;27.75;;;;;;;21.24;100.00;101456.75;5022776;28;20054;-79
2023/08/11 06:14:21;;;;;;;28.42;26.42;;;;;;;21.56;100.00;101461.28;5024265;28;20085;-79
2023/08/11 06:16:49;;;;;;;25.80;24.10;;;;;;;21.98;100.00;101456.91;5024137;28;20057;-80
2023/08/11 06:19:17;;;;;;;24.67;23.08;;;;;;;22.10;100.00;101452.09;5023329;28;20053;-80
2023/08/11 06:21:45;;;;;;;25.77;23.98;;;;;;;21.92;100.00;101454.19;5022503;28;20046;-86
2023/08/11 06:24:13;;;;;;;26.40;24.50;;;;;;;21.83;100.00;101454.94;5024236;28;20061;-85
2023/08/11 06:26:40;;;;;;;26.90;25.00;;;;;;;22.64;100.00;101462.53;5027055;28;20046;-84
2023/08/11 06:29:08;;;;;;;23.92;22.13;;;;;;;22.60;100.00;101461.44;5026611;28;20046;-86
2023/08/11 06:31:35;;;;;;;24.83;23.13;;;;;;;22.83;100.00;101454.69;5022462;28;20051;-86
2023/08/11 06:34:04;;;;;;;22.55;21.15;;;;;;;22.90;100.00;101457.94;5026988;28;20495;-85
2023/08/11 06:36:30;;;;;;;21.98;20.38;;;;;;;22.21;100.00;101456.50;5022758;28;20052;-86
2023/08/11 06:38:58;;;;;;;23.30;21.70;;;;;;;22.40;100.00;101457.63;5020441;28;20108;-86
2023/08/11 06:41:24;;;;;;;23.27;21.67;;;;;;;21.76;100.00;101457.91;5018901;28;20045;-86
2023/08/11 06:43:53;;;;;;;24.50;22.70;;;;;;;22.41;100.00;101467.34;5019826;28;20535;-87
2023/08/11 06:46:20;;;;;;;24.48;22.67;;;;;;;21.48;100.00;101468.03;5023084;28;20053;-86
2023/08/11 06:48:47;;;;;;;23.33;21.58;;;;;;;21.19;100.00;101470.22;5018346;28;20079;-86
2023/08/11 06:51:15;;;;;;;24.25;22.15;;;;;;;21.42;100.00;101468.22;5027634;28;20042;-79
2023/08/11 06:53:42;;;;;;;24.33;22.42;;;;;;;21.34;100.00;101466.81;5028082;28;20050;-85
2023/08/11 06:56:09;;;;;;;23.70;21.80;;;;;;;21.56;100.00;101471.28;5019940;28;20076;-79
2023/08/11 06:58:36;;;;;;;24.85;22.85;;;;;;;21.77;100.00;101466.81;5027214;28;20494;-85
2023/08/11 07:01:03;;;;;;;22.92;21.20;;;;;;;21.56;100.00;101472.09;5020787;28;20052;-79
2023/08/11 07:03:30;;;;;;;31.15;22.40;;;;;;;21.85;100.00;101471.75;5020810;28;20142;-86
2023/08/11 07:05:57;;;;;;;23.83;21.88;;;;;;;21.99;100.00;101474.75;5022143;28;20424;-85
2023/08/11 07:08:25;;;;;;;22.77;20.98;;;;;;;22.45;100.00;101477.66;5020767;28;20052;-86
2023/08/11 07:10:52;;;;;;;21.73;20.15;;;;;;;23.25;100.00;101473.41;5021365;28;20054;-85
2023/08/11 07:13:19;;;;;;;21.83;20.33;;;;;;;23.17;100.00;101465.81;5019784;28;20045;-85
2023/08/11 07:15:46;;;;;;;21.98;20.48;;;;;;;22.53;100.00;101477.13;5018335;28;20080;-85
2023/08/11 07:18:16;;;;;;;23.75;22.00;;;;;;;22.97;100.00;101491.03;5024676;28;20053;-86
2023/08/11 07:20:43;;;;;;;22.35;20.55;;;;;;;23.42;100.00;101489.41;5026386;28;20049;-86
2023/08/11 07:23:10;;;;;;;23.38;21.58;;;;;;;23.52;100.00;101486.66;5019840;28;20049;-86
2023/08/11 07:25:39;;;;;;;21.40;19.80;;;;;;;23.24;100.00;101489.97;5024077;28;20132;-85
2023/08/11 07:28:06;;;;;;;22.25;20.65;;;;;;;23.17;100.00;101489.41;5027090;28;20049;-86
2023/08/11 07:30:33;;;;;;;23.65;21.83;;;;;;;22.83;100.00;101495.31;5019920;28;20055;-79
2023/08/11 07:33:00;;;;;;;21.88;20.17;;;;;;;23.26;100.00;101494.00;5019893;28;20053;-79
2023/08/11 07:35:27;;;;;;;21.58;19.88;;;;;;;23.29;100.00;101496.16;5020111;28;20057;-79
2023/08/11 07:37:54;;;;;;;22.70;20.90;;;;;;;22.73;100.00;101488.00;5024794;28;20406;-86
2023/08/11 07:40:21;;;;;;;21.35;19.75;;;;;;;23.96;100.00;101491.47;5027627;28;20045;-85
2023/08/11 07:42:49;;;;;;;27.73;20.80;;;;;;;23.99;100.00;101493.63;5021351;28;20038;-86
2023/08/11 07:45:16;;;;;;;21.30;19.70;;;;;;;24.13;100.00;101495.72;5019261;28;20057;-86
2023/08/11 07:47:43;;;;;;;22.17;20.48;;;;;;;23.95;100.00;101491.72;5018122;28;20057;-86
2023/08/11 07:50:10;;;;;;;23.20;21.60;;;;;;;24.78;100.00;101498.34;5028598;28;20045;-85
2023/08/11 07:52:37;;;;;;;22.15;20.45;;;;;;;24.61;100.00;101490.63;5028744;28;20041;-86
2023/08/11 07:55:05;;;;;;;22.10;20.50;;;;;;;23.03;100.00;101491.84;5010692;28;20054;-86
2023/08/11 07:57:32;;;;;;;21.92;20.23;;;;;;;23.12;100.00;101492.09;5026515;28;20119;-86
2023/08/11 08:00:00;;;;;;;20.73;19.13;;;;;;;23.03;100.00;101489.16;5026661;28;20075;-85
2023/08/11 08:02:27;;;;;;;21.40;19.90;;;;;;;24.41;100.00;101488.78;5026500;28;20057;-78
2023/08/11 08:04:54;;;;;;;22.50;20.80;;;;;;;24.49;100.00;101488.25;5026545;28;20053;-86
2023/08/11 08:07:24;;;;;;;22.42;20.73;;;;;;;24.63;100.00;101489.25;5027846;28;20402;-86
2023/08/11 08:09:51;;;;;;;21.45;19.65;;;;;;;24.48;100.00;101477.66;5026393;28;20056;-79
2023/08/11 08:12:18;;;;;;;21.80;20.20;;;;;;;24.84;100.00;101487.19;5023739;28;20049;-79
2023/08/11 08:14:45;;;;;;;22.58;21.08;;;;;;;25.40;100.00;101468.78;5024961;28;20061;-86
2023/08/11 08:17:13;;;;;;;22.73;21.02;;;;;;;24.62;100.00;101467.78;5026514;28;20049;-86
2023/08/11 08:19:40;;;;;;;21.98;20.48;;;;;;;24.32;100.00;101469.56;5014461;28;20433;-87
2023/08/11 08:22:07;;;;;;;21.40;19.90;;;;;;;24.39;100.00;101466.56;5025492;28;20053;-87
2023/08/11 08:24:34;;;;;;;21.70;20.20;;;;;;;24.32;100.00;101464.13;5025974;28;20077;-79
2023/08/11 08:27:01;;;;;;;22.05;20.55;;;;;;;24.92;100.00;101458.59;5025652;28;20439;-78
2023/08/11 08:29:28;;;;;;;22.35;20.85;;;;;;;25.21;100.00;101464.09;5025511;28;20057;-79
2023/08/11 08:31:55;;;;;;;20.92;19.52;;;;;;;24.23;100.00;101455.75;5024929;28;20081;-78
2023/08/11 08:34:23;;;;;;;21.50;20.02;;;;;;;24.73;100.00;101461.19;5024879;28;20180;-79
2023/08/11 08:36:53;;;;;;;22.33;20.73;;;;;;;25.13;100.00;101467.41;5025718;28;20457;-79
2023/08/11 08:39:21;;;;;;;22.27;20.58;;;;;;;24.04;100.00;101462.13;5025787;28;20049;-78
2023/08/11 08:41:52;;;;;;;22.10;20.30;;;;;;;25.22;100.00;101465.69;5026215;28;20136;-79
2023/08/11 08:44:23;;;;;;;20.67;19.17;;;;;;;25.24;100.00;101463.50;5026017;28;20216;-79
2023/08/11 08:46:54;;;;;;;22.10;20.40;;;;;;;25.25;100.00;101470.56;5024061;28;20042;-79
2023/08/11 08:49:27;;;;;;;23.33;21.73;;;;;;;25.35;100.00;101461.50;5025791;28;20053;-79
2023/08/11 08:51:56;;;;;;;22.70;21.00;;;;;;;25.50;100.00;101468.69;5021007;28;20489;-80
2023/08/11 08:54:24;;;;;;;22.52;20.92;;;;;;;24.96;100.00;101459.63;5024563;28;20484;-86
2023/08/11 08:56:52;;;;;;;23.10;21.50;;;;;;;25.28;100.00;101471.91;5019730;28;20058;-85
2023/08/11 08:59:19;;;;;;;21.70;20.10;;;;;;;25.35;100.00;101466.94;5017474;28;20107;-86
2023/08/11 09:01:48;;;;;;;21.95;20.27;;;;;;;25.97;100.00;101465.19;5032651;28;20174;-85
2023/08/11 09:04:16;;;;;;;22.58;20.98;;;;;;;25.72;100.00;101457.28;5033518;28;20045;-87
2023/08/11 09:06:45;;;;;;;21.42;19.85;;;;;;;25.58;100.00;101466.16;5033125;28;20045;-86
2023/08/11 09:09:15;;;;;;;22.60;21.08;;;;;;;26.33;100.00;101461.19;5034459;28;20050;-85
2023/08/11 09:11:42;;;;;;;22.40;20.80;;;;;;;26.12;100.00;101458.72;5032005;28;20149;-88
2023/08/11 09:14:14;;;;;;;22.50;21.00;;;;;;;26.62;100.00;101461.03;5032735;28;20081;-86
2023/08/11 09:16:45;;;;;;;23.70;22.10;;;;;;;25.69;100.00;101461.41;5031718;28;20579;-79
2023/08/11 09:19:14;;;;;;;23.27;21.67;;;;;;;25.93;100.00;101458.72;5031113;28;20494;-86
2023/08/11 09:21:44;;;;;;;23.30;21.60;;;;;;;26.80;100.00;101459.41;5033909;28;20045;-86
2023/08/11 09:24:12;;;;;;;23.05;21.45;;;;;;;25.99;100.00;101449.38;5034792;28;20057;-86
2023/08/11 09:26:43;;;;;;;22.70;21.00;;;;;;;26.56;100.00;101452.13;5034601;28;20057;-86
2023/08/11 09:29:29;;;;;;;22.30;20.70;;;;;;;25.74;100.00;101460.53;5018529;28;20042;-86
2023/08/11 09:32:06;;;;;;;23.55;21.95;;;;;;;26.53;100.00;101452.72;5025603;28;20045;-79
2023/08/11 09:34:34;;;;;;;22.95;21.25;;;;;;;26.32;100.00;101445.94;5029423;28;20049;-85
2023/08/11 09:37:02;;;;;;;22.35;20.80;;;;;;;26.57;100.00;101436.63;5026742;28;20057;-85
2023/08/11 09:39:30;;;;;;;22.73;21.13;;;;;;;26.24;100.00;101436.53;5025491;28;20070;-87
2023/08/11 09:41:57;;;;;;;23.20;21.58;;;;;;;25.46;100.00;101449.41;5020200;28;20111;-87
2023/08/11 09:44:23;;;;;;;24.48;22.58;;;;;;;26.99;100.00;101445.72;5019649;28;20519;-87
2023/08/11 09:46:51;;;;;;;23.33;21.63;;;;;;;26.71;100.00;101441.00;5017673;28;20497;-85
2023/08/11 09:49:18;;;;;;;23.17;21.48;;;;;;;26.72;100.00;101441.81;5021176;28;20050;-79
2023/08/11 09:51:46;;;;;;;21.80;20.10;;;;;;;27.16;100.00;101437.81;5025852;28;20119;-80
2023/08/11 09:54:16;;;;;;;24.33;22.42;;;;;;;27.63;100.00;101431.19;5026609;28;20390;-79
2023/08/11 09:57:12;;;;;;;26.10;23.98;;;;;;;28.60;100.00;101439.22;5026999;28;20140;-79
2023/08/11 09:59:44;;;;;;;23.17;21.40;;;;;;;27.03;100.00;101439.38;5015840;28;20124;-85
2023/08/11 10:02:16;;;;;;;23.70;21.90;;;;;;;27.64;100.00;101440.19;5026872;28;20051;-87
2023/08/11 10:04:46;;;;;;;23.33;21.42;;;;;;;27.35;100.00;101444.03;5026900;28;20041;-86
2023/08/11 10:07:18;;;;;;;23.20;21.40;;;;;;;28.29;100.00;101434.44;5024096;28;20045;-86
2023/08/11 10:09:49;;;;;;;22.52;20.83;;;;;;;28.29;100.00;101433.63;5022081;28;20049;-87
2023/08/11 10:12:17;;;;;;;22.83;20.93;;;;;;;26.83;100.00;101439.72;5025482;28;20052;-87
2023/08/11 10:14:44;;;;;;;22.02;20.33;;;;;;;28.59;100.00;101439.50;5023983;28;20050;-86
2023/08/11 10:17:31;;;;;;;23.48;21.77;;;;;;;27.96;100.00;101438.44;5027054;28;20080;-88
2023/08/11 10:20:04;;;;;;;27.58;23.27;;;;;;;28.25;100.00;101444.34;5028484;28;20524;-87
2023/08/11 10:22:32;;;;;;;22.92;21.13;;;;;;;27.46;100.00;101433.72;5027408;28;20073;-80
2023/08/11 10:25:02;;;;;;;24.42;22.50;;;;;;;28.98;100.00;101427.88;5023495;28;20356;-87
2023/08/11 10:27:35;;;;;;;25.15;23.25;;;;;;;27.37;100.00;101425.41;5018482;28;20304;-79
2023/08/11 10:30:02;;;;;;;23.83;22.02;;;;;;;27.05;100.00;101433.63;5019560;28;20042;-86
2023/08/11 10:32:32;;;;;;;25.00;23.05;;;;;;;28.19;100.00;101420.22;5021185;28;20428;-79
2023/08/11 10:34:59;;;;;;;25.67;23.52;;;;;;;27.75;100.00;101432.59;5019179;28;20057;-79
2023/08/11 10:37:30;;;;;;;25.63;22.48;;;;;;;27.66;100.00;101435.25;5016487;28;20431;-79
2023/08/11 10:40:05;;;;;;;23.65;21.80;;;;;;;28.65;100.00;101427.34;5022877;28;20091;-80
2023/08/11 10:42:33;;;;;;;23.70;21.90;;;;;;;27.78;100.00;101418.38;5018951;28;20119;-80
2023/08/11 10:45:11;;;;;;;21.77;20.02;;;;;;;27.19;100.00;101426.31;5023963;28;20408;-80
2023/08/11 10:47:38;;;;;;;23.05;21.35;;;;;;;27.37;100.00;101424.63;5022380;28;20517;-79
2023/08/11 10:50:09;;;;;;;22.45;20.77;;;;;;;26.40;100.00;101423.50;5027006;28;20049;-86
2023/08/11 10:52:37;;;;;;;23.15;21.30;;;;;;;26.64;100.00;101420.69;5032291;28;20037;-86
2023/08/11 10:55:08;;;;;;;25.92;23.90;;;;;;;27.37;100.00;101403.59;5028666;28;20061;-87
2023/08/11 10:57:36;;;;;;;22.33;20.52;;;;;;;27.70;100.00;101408.94;5031362;28;20049;-86
2023/08/11 11:00:03;;;;;;;22.08;20.48;;;;;;;27.30;100.00;101400.47;5027148;28;20046;-87
2023/08/11 11:02:32;;;;;;;23.30;21.50;;;;;;;28.14;100.00;101401.19;5029503;28;20049;-87
2023/08/11 11:04:58;;;;;;;23.13;21.42;;;;;;;27.60;100.00;101406.44;5019934;28;20053;-86
2023/08/11 11:07:25;;;;;;;23.35;21.55;;;;;;;27.60;100.00;101396.34;5026704;28;20148;-86